Terminal Aerodrome Forecast
Issued by NWS

Home | Current Version | Previous Version | Text Only | Print | Product List | Glossary On
Versions: 1 2 3 4 5 6 7 8 9 10 11 12 13 14 15
000
FTUS45 KREV 210619 AAA
TAFTVL
TAF AMD
KTVL 210619Z 2106/2206 19005KT 2SM BR SCT080 BKN180
     FM211000 VRB04KT 1SM BR SCT030 SCT070 BKN140
     FM211900 19009KT P6SM SCT040 SCT090 BKN150
     FM220200 VRB04KT P6SM SCT090 SCT150 BKN180=

USA.gov is the U.S. government's official web portal to all federal, state and local government web resources and services.